KGCN/GCN METAR and TAF weather

Enter ICAO airport designator
Station Type Date Time Source
KGCN METAR 2018/12/10 08:54 UTC NOAA

KGCN 100854Z AUTO 08004KT 10SM CLR 01/M04 A3035 RMK AO2 SLP251 T00061039 58014


Station Type Date Time Source
KGCN Decoded METAR 2018/12/10 08:54 UTC NOAA

GRAND CANYON NATL PARK AIRPORT , AZ, United States (KGCN) 35-57N 112-09W 2016M
Dec 10, 2018 - 03:54 AM EST / 2018.12.10 0854 UTC
Wind: from the E (080 degrees) at 5 MPH (4 KT):0
Visibility: 10 mile(s):0
Sky conditions: clear
Temperature: 33.1 F (0.6 C)
Windchill: 28 F (-2 C):1
Dew Point: 25.0 F (-3.9 C)
Relative Humidity: 71%
Pressure (altimeter): 30.35 in. Hg (1027 hPa)
Pressure tendency: 0.04 inches (1.4 hPa) lower than three hours ago
ob: KGCN 100854Z AUTO 08004KT 10SM CLR 01/M04 A3035 RMK AO2 SLP251 T00061039 58014
cycle: 9

Station Type Date Time Source
KGCN TAF 2018/12/10 06:22 UTC NOAA

TAF KGCN 100520Z 1006/1106 06004KT P6SM BKN250
FM102100 18008KT P6SM BKN110
FM110200 VRB03KT P6SM BKN110


Example: see airport list